createdAt,value
2019-02-05T00:05:06.247Z,37.50
2019-02-05T00:10:24.094Z,43.33
2019-02-05T00:15:41.563Z,36.93
2019-02-05T00:20:58.428Z,40.77
2019-02-05T00:26:15.218Z,40.50
2019-02-05T00:31:32.112Z,38.20
2019-02-05T00:36:48.883Z,40.13
2019-02-05T00:42:06.178Z,55.43
2019-02-05T00:47:23.272Z,56.43
2019-02-05T00:52:40.265Z,51.70
2019-02-05T00:57:57.677Z,48.63
2019-02-05T01:03:14.944Z,49.83
2019-02-05T01:08:31.897Z,46.13
2019-02-05T01:13:49.445Z,51.73
2019-02-05T01:19:07.135Z,38.23
2019-02-05T01:24:23.917Z,42.37
2019-02-05T01:29:40.939Z,45.47
2019-02-05T01:34:58.611Z,40.67
2019-02-05T01:40:15.777Z,44.53
2019-02-05T01:45:33.693Z,46.67
2019-02-05T01:50:50.794Z,43.93
2019-02-05T01:56:08.247Z,65.72
2019-02-05T02:01:25.737Z,61.15
2019-02-05T02:06:43.388Z,48.13
2019-02-05T02:12:00.412Z,47.50
2019-02-05T02:17:18.283Z,39.03
2019-02-05T02:22:35.344Z,46.87
2019-02-05T02:27:53.347Z,49.20
2019-02-05T02:33:10.294Z,47.80
2019-02-05T02:38:27.931Z,51.57
2019-02-05T02:43:45.563Z,54.07
2019-02-05T02:49:02.435Z,46.90
2019-02-05T02:54:19.248Z,41.70
2019-02-05T02:59:36.331Z,45.53
2019-02-05T03:04:53.129Z,39.20
2019-02-05T03:10:10.245Z,40.23
2019-02-05T03:15:27.500Z,45.40
2019-02-05T03:20:46.166Z,43.00
2019-02-05T03:26:03.022Z,40.50
2019-02-05T03:31:20.739Z,48.93
2019-02-05T03:36:38.442Z,43.30
2019-02-05T03:41:55.765Z,46.03
2019-02-05T03:47:13.212Z,43.83
2019-02-05T03:52:30.515Z,43.97
2019-02-05T03:57:47.909Z,43.60
2019-02-05T04:03:05.698Z,44.47
2019-02-05T04:08:23.426Z,39.47
2019-02-05T04:13:40.739Z,39.93
2019-02-05T04:18:58.017Z,45.20
2019-02-05T04:24:14.836Z,40.43
2019-02-05T04:29:31.941Z,53.07
2019-02-05T04:34:49.109Z,44.00
2019-02-05T04:40:06.081Z,41.53
2019-02-05T04:45:33.844Z,44.77
2019-02-05T04:50:42.747Z,38.30
2019-02-05T04:55:59.611Z,50.10
2019-02-05T05:01:17.057Z,45.47
2019-02-05T05:06:34.202Z,43.43
2019-02-05T05:11:50.958Z,43.63
2019-02-05T05:17:08.097Z,39.80
2019-02-05T05:22:25.080Z,37.20
2019-02-05T05:27:42.089Z,42.60
2019-02-05T05:32:59.634Z,36.03
2019-02-05T05:38:17.394Z,30.83
2019-02-05T05:43:34.725Z,30.97
2019-02-05T05:48:51.748Z,33.07
2019-02-05T05:54:09.122Z,32.67
2019-02-05T05:59:26.650Z,31.73
2019-02-05T06:04:43.526Z,34.87
2019-02-05T06:10:01.917Z,37.70
2019-02-05T06:15:19.252Z,30.97
2019-02-05T06:20:36.484Z,43.28
2019-02-05T06:25:54.088Z,40.60
2019-02-05T06:31:11.468Z,41.57
2019-02-05T06:36:28.417Z,31.87
2019-02-05T06:41:45.407Z,33.83
2019-02-05T06:47:02.334Z,28.90
2019-02-05T06:52:19.086Z,34.63
2019-02-05T06:57:37.348Z,27.30
2019-02-05T07:02:54.101Z,31.50
2019-02-05T07:08:11.251Z,29.90
2019-02-05T07:13:28.142Z,39.08
2019-02-05T07:18:45.645Z,39.35
2019-02-05T07:24:03.693Z,33.87
2019-02-05T07:29:20.779Z,34.33
2019-02-05T07:34:37.831Z,37.67
2019-02-05T07:39:55.588Z,45.95
2019-02-05T07:45:12.638Z,38.47
2019-02-05T07:50:29.951Z,35.85
2019-02-05T07:55:46.907Z,46.53
2019-02-05T08:01:04.472Z,40.15
2019-02-05T08:06:21.772Z,32.17
2019-02-05T08:11:41.269Z,37.53
2019-02-05T08:16:58.245Z,41.92
2019-02-05T08:22:15.042Z,34.70
2019-02-05T08:27:32.167Z,36.00
2019-02-05T08:32:49.294Z,40.45
2019-02-05T08:38:06.715Z,40.67
2019-02-05T08:43:23.587Z,33.67
2019-02-05T08:48:41.163Z,31.87
2019-02-05T08:53:58.632Z,35.83
2019-02-05T08:59:16.314Z,35.87
2019-02-05T09:04:33.601Z,28.63
2019-02-05T09:09:50.837Z,34.23
2019-02-05T09:15:08.582Z,32.53
2019-02-05T09:20:25.455Z,32.83
2019-02-05T09:25:42.491Z,30.90
2019-02-05T09:31:01.443Z,30.97
2019-02-05T09:36:18.902Z,23.03
2019-02-05T09:41:35.814Z,26.30
2019-02-05T09:46:52.872Z,20.63
2019-02-05T09:52:09.996Z,18.10
2019-02-05T09:57:26.905Z,19.37
2019-02-05T10:02:44.462Z,19.10
2019-02-05T10:08:02.260Z,18.03
2019-02-05T10:13:19.318Z,12.13
2019-02-05T10:18:36.230Z,11.43
2019-02-05T10:23:53.038Z,12.40
2019-02-05T10:29:10.118Z,13.93
2019-02-05T10:34:34.321Z,12.87
2019-02-05T10:39:46.548Z,10.33
2019-02-05T10:45:04.422Z,10.77
2019-02-05T10:50:21.441Z,14.07
2019-02-05T10:55:39.071Z,12.77
2019-02-05T11:00:56.169Z,10.83
2019-02-05T11:06:13.796Z,8.80
2019-02-05T11:11:31.231Z,11.03
2019-02-05T11:16:48.371Z,10.70
2019-02-05T11:22:05.941Z,11.13
2019-02-05T11:27:23.645Z,9.37
2019-02-05T11:32:40.584Z,9.57
2019-02-05T11:37:57.599Z,8.17
2019-02-05T11:43:14.395Z,8.80
2019-02-05T11:48:31.715Z,7.83
2019-02-05T11:53:49.221Z,10.00
2019-02-05T11:59:06.197Z,9.03
2019-02-05T12:04:23.314Z,11.17
2019-02-05T12:09:40.621Z,9.53
2019-02-05T12:14:57.760Z,7.90
2019-02-05T12:20:14.988Z,9.77
2019-02-05T12:25:32.171Z,13.20
2019-02-05T12:30:49.582Z,11.93
2019-02-05T12:36:06.623Z,10.67
2019-02-05T12:41:24.321Z,14.40
2019-02-05T12:46:42.079Z,12.53
2019-02-05T12:51:59.314Z,19.43
2019-02-05T12:57:16.614Z,15.27
2019-02-05T13:02:33.831Z,21.90
2019-02-05T13:07:50.713Z,19.87
2019-02-05T13:13:07.751Z,14.57
2019-02-05T13:18:24.653Z,14.00
2019-02-05T13:23:41.806Z,13.70
2019-02-05T13:28:59.229Z,19.43
2019-02-05T13:34:16.325Z,19.10
2019-02-05T13:39:33.753Z,20.50
2019-02-05T13:44:50.811Z,17.57
2019-02-05T13:50:08.312Z,14.53
2019-02-05T13:55:25.143Z,17.17
2019-02-05T14:00:42.283Z,17.90
2019-02-05T14:05:59.889Z,20.27
2019-02-05T14:11:16.883Z,17.30
2019-02-05T14:16:33.698Z,16.83
2019-02-05T14:21:50.796Z,22.37
2019-02-05T14:27:08.117Z,18.37
2019-02-05T14:32:25.815Z,15.43
2019-02-05T14:37:43.067Z,17.30
2019-02-05T14:43:00.348Z,14.13
2019-02-05T14:48:17.933Z,16.17
2019-02-05T14:53:35.542Z,19.47
2019-02-05T14:58:52.668Z,16.57
2019-02-05T15:04:09.432Z,15.80
2019-02-05T15:09:26.704Z,15.93
2019-02-05T15:14:43.830Z,20.40
2019-02-05T15:20:01.765Z,13.57
2019-02-05T15:25:18.764Z,11.17
2019-02-05T15:30:36.838Z,17.60
2019-02-05T15:35:57.281Z,12.87
2019-02-05T15:41:15.064Z,13.57
2019-02-05T15:46:32.806Z,12.07
2019-02-05T15:51:49.953Z,13.70
2019-02-05T15:57:07.239Z,10.77
2019-02-05T16:02:24.399Z,12.90
2019-02-05T16:07:42.089Z,18.30
2019-02-05T16:12:58.847Z,11.17
2019-02-05T16:18:15.727Z,13.60
2019-02-05T16:23:33.036Z,18.87
2019-02-05T16:28:50.362Z,16.23
2019-02-05T16:34:07.919Z,23.67
2019-02-05T16:39:24.912Z,20.37
2019-02-05T16:44:42.134Z,18.37
2019-02-05T16:49:59.497Z,12.87
2019-02-05T16:55:16.559Z,19.23
2019-02-05T17:00:34.355Z,21.77
2019-02-05T17:05:51.287Z,23.90
2019-02-05T17:11:08.055Z,20.23
2019-02-05T17:16:25.350Z,22.43
2019-02-05T17:21:42.613Z,21.63
2019-02-05T17:26:59.888Z,24.13
2019-02-05T17:32:16.925Z,19.97
2019-02-05T17:37:34.124Z,28.43
2019-02-05T17:42:52.013Z,26.10
2019-02-05T17:48:09.294Z,30.65
2019-02-05T17:53:26.615Z,30.03
2019-02-05T17:58:44.029Z,30.48
2019-02-05T18:04:01.143Z,23.60
2019-02-05T18:09:18.661Z,25.07
2019-02-05T18:14:36.166Z,31.77
2019-02-05T18:19:53.720Z,34.87
2019-02-05T18:25:11.122Z,28.73
2019-02-05T18:30:28.177Z,41.73
2019-02-05T18:35:45.481Z,35.68
2019-02-05T18:41:03.247Z,27.10
2019-02-05T18:46:21.175Z,36.05
2019-02-05T18:51:38.952Z,30.30
2019-02-05T18:56:56.293Z,27.03
2019-02-05T19:02:13.387Z,22.60
2019-02-05T19:07:30.562Z,29.70
2019-02-05T19:12:48.168Z,19.87
2019-02-05T19:18:05.552Z,23.70
2019-02-05T19:23:22.848Z,21.30
2019-02-05T19:28:41.537Z,22.03
2019-02-05T19:33:58.408Z,23.20
2019-02-05T19:39:16.407Z,22.93
2019-02-05T19:44:33.711Z,18.80
2019-02-05T19:49:54.104Z,19.03
2019-02-05T19:55:11.693Z,20.23
2019-02-05T20:00:29.575Z,18.00
2019-02-05T20:05:46.719Z,17.10
2019-02-05T20:11:04.001Z,14.33
2019-02-05T20:16:21.070Z,13.93
2019-02-05T20:21:37.974Z,11.10
2019-02-05T20:26:55.645Z,13.57
2019-02-05T20:32:13.045Z,11.57
2019-02-05T20:37:29.857Z,7.33
2019-02-05T20:42:47.056Z,9.80
2019-02-05T20:48:04.095Z,7.13
2019-02-05T20:53:21.376Z,7.70
2019-02-05T20:58:39.092Z,7.80
2019-02-05T21:04:01.170Z,5.77
2019-02-05T21:09:15.109Z,6.70
2019-02-05T21:14:32.408Z,4.90
2019-02-05T21:19:49.810Z,8.07
2019-02-05T21:25:06.657Z,9.58
2019-02-05T21:30:24.279Z,9.60
2019-02-05T21:35:41.490Z,6.03
2019-02-05T21:40:58.986Z,7.37
2019-02-05T21:46:16.094Z,8.23
2019-02-05T21:51:40.576Z,7.83
2019-02-05T21:56:51.783Z,7.37
2019-02-05T22:02:08.794Z,5.63
2019-02-05T22:07:26.743Z,8.13
2019-02-05T22:12:44.758Z,7.77
2019-02-05T22:18:01.461Z,8.17
2019-02-05T22:23:19.162Z,9.53
2019-02-05T22:28:35.995Z,8.33
2019-02-05T22:33:53.282Z,7.83
2019-02-05T22:39:10.870Z,7.63
2019-02-05T22:44:28.423Z,8.03
2019-02-05T22:49:46.757Z,6.30
2019-02-05T22:55:03.780Z,6.97
2019-02-05T23:00:20.725Z,6.60
2019-02-05T23:05:37.610Z,6.00
2019-02-05T23:11:03.182Z,5.87
2019-02-05T23:16:13.355Z,6.77
2019-02-05T23:21:30.746Z,5.90
2019-02-05T23:26:48.027Z,3.90
2019-02-05T23:32:04.989Z,4.77
2019-02-05T23:37:22.690Z,5.43
2019-02-05T23:42:40.213Z,4.23
2019-02-05T23:47:57.102Z,5.93
2019-02-05T23:53:14.840Z,6.20
2019-02-05T23:58:31.729Z,5.80
